Impacts METAR Board INFO
IDs:

KLGA - New York/La Guardia, NY, US

Updated at: 0857 UTC 22 Feb 2018
Potential Impact None Slight Moderate High
Time21/20Z 21/21Z 21/22Z 21/23Z 22/00Z 22/01Z 22/02Z 22/03Z 22/04Z 22/05Z 22/06Z 22/07Z 22/08Z
VIS10 10 10 10 10 10 10 10 10 10
CIG-- -- -- -- -- 39 39 43 45 47
CoverFEWSCTFEWFEWCLROVCOVCOVCOVCOVC
FltCatVFRVFRVFRVFRVFRVFRVFRVFRVFRVFR
WX---------------RA----
WDir230230220220210360360350360340
WSpd12 9 9 8 8 7 8 9 12 11
WGst-- -- -- -- -- -- 18 -- -- --
Raw hourly METARs
KLGA 211951Z 23012KT 10SM FEW250 25/14 A3019 RMK AO2 SLP223 T02500144 $
KLGA 212051Z 23009KT 10SM FEW050 SCT250 26/14 A3019 RMK AO2 SLP222 T02560144 56010 $
KLGA 212151Z 22009KT 10SM FEW050 FEW250 25/15 A3020 RMK AO2 SLP225 T02500150 $
KLGA 212251Z 22008KT 10SM FEW050 FEW250 24/15 A3022 RMK AO2 SLP232 T02390150 $
KLGA 212351Z 21008KT 10SM CLR 23/15 A3024 RMK AO2 SLP239 T02330150 10261 20233 53017 $



KLGA 220351Z 36007KT 10SM OVC039 15/09 A3037 RMK AO2 SLP284 T01500094 $
KLGA 220451Z 36008G18KT 10SM OVC039 14/08 A3039 RMK AO2 SLP291 T01440078 402610100 $
KLGA 220551Z 35009KT 10SM -RA OVC043 14/07 A3042 RMK AO2 RAB42 SLP301 P0000 60002 T01390067 10233 20133 53022 $
KLGA 220651Z 36012KT 10SM OVC045 13/01 A3044 RMK AO2 RAE17 SLP308 P0000 T01330006 $
KLGA 220751Z 34011KT 10SM OVC047 12/01 A3048 RMK AO2 SLP320 T01170006 $